Time;durP1;ratioP1;P1;durP2;ratioP2;P2;SDS_P1;SDS_P2;PMS_P1;PMS_P2;Temp;Humidity;BMP_temperature;BMP_pressure;BME280_temperature;BME280_humidity;BME280_pressure;Samples;Min_cycle;Max_cycle;Signal;HPM_P1;HPM_P2
2021/10/26 00:01:39;;;;;;;6.85;4.60;;;9.90;86.40;;;;;;5087475;28;20016;-73
2021/10/26 00:04:08;;;;;;;8.35;4.85;;;10.00;86.50;;;;;;5094229;28;20490;-73
2021/10/26 00:06:34;;;;;;;9.88;4.50;;;10.00;86.60;;;;;;5093732;28;21397;-73
2021/10/26 00:09:00;;;;;;;8.43;4.10;;;10.00;86.70;;;;;;5094071;28;20032;-73
2021/10/26 00:11:32;;;;;;;7.82;3.80;;;10.00;86.60;;;;;;5089953;28;20078;-73
2021/10/26 00:13:58;;;;;;;7.28;4.18;;;10.00;86.40;;;;;;5082171;28;20379;-73
2021/10/26 00:16:24;;;;;;;10.48;4.65;;;10.00;86.50;;;;;;5085952;28;20055;-73
2021/10/26 00:18:50;;;;;;;7.18;4.10;;;10.00;86.70;;;;;;5097270;28;20023;-73
2021/10/26 00:21:16;;;;;;;7.05;3.83;;;10.00;86.70;;;;;;5091972;28;20028;-73
2021/10/26 00:23:42;;;;;;;5.65;3.28;;;10.00;86.60;;;;;;5097657;28;20027;-73
2021/10/26 00:26:09;;;;;;;7.40;4.38;;;10.00;86.50;;;;;;5085971;28;20021;-74
2021/10/26 00:28:35;;;;;;;7.63;4.40;;;10.00;86.50;;;;;;5084059;28;20116;-73
2021/10/26 00:31:02;;;;;;;6.72;3.65;;;10.00;86.60;;;;;;5086615;28;20020;-73
2021/10/26 00:33:29;;;;;;;6.35;3.50;;;10.00;86.70;;;;;;5079244;28;20328;-73
2021/10/26 00:35:55;;;;;;;7.70;3.92;;;10.00;86.80;;;;;;5092264;28;20039;-73
2021/10/26 00:38:21;;;;;;;7.97;3.70;;;10.00;86.80;;;;;;5086932;28;20045;-73
2021/10/26 00:40:47;;;;;;;7.20;3.47;;;10.00;86.60;;;;;;5080743;28;20027;-74
2021/10/26 00:43:13;;;;;;;6.13;3.95;;;10.00;86.70;;;;;;5077368;28;20047;-73
2021/10/26 00:45:39;;;;;;;5.60;3.42;;;10.00;86.60;;;;;;5076312;28;20755;-73
2021/10/26 00:48:06;;;;;;;6.88;3.35;;;9.90;86.60;;;;;;5085871;28;20036;-74
2021/10/26 00:50:32;;;;;;;7.57;3.72;;;9.90;86.60;;;;;;5081864;28;20028;-74
2021/10/26 00:52:58;;;;;;;9.43;3.75;;;10.00;86.70;;;;;;5093812;28;20035;-74
2021/10/26 00:55:24;;;;;;;9.07;3.50;;;9.90;86.50;;;;;;5077709;28;20024;-73
2021/10/26 00:57:51;;;;;;;6.35;3.78;;;9.90;86.50;;;;;;5081568;28;20069;-73
2021/10/26 01:00:18;;;;;;;5.60;3.22;;;9.90;86.40;;;;;;5078052;28;20012;-73
2021/10/26 01:02:45;;;;;;;6.05;3.47;;;9.90;86.60;;;;;;5080696;28;20395;-73
2021/10/26 01:05:13;;;;;;;5.93;3.33;;;9.90;86.70;;;;;;5080428;28;20052;-73
2021/10/26 01:07:40;;;;;;;7.22;3.95;;;9.90;86.70;;;;;;5078869;28;20510;-73
2021/10/26 01:10:07;;;;;;;7.10;3.92;;;9.90;86.90;;;;;;5078943;28;20024;-73
2021/10/26 01:12:35;;;;;;;9.75;3.90;;;9.90;86.80;;;;;;5076717;28;20090;-74
2021/10/26 01:15:03;;;;;;;7.47;4.25;;;9.90;86.90;;;;;;5095806;28;20024;-74
2021/10/26 01:17:28;;;;;;;7.13;3.95;;;9.90;86.90;;;;;;5076519;28;20020;-74
2021/10/26 01:19:56;;;;;;;9.32;3.80;;;9.90;87.00;;;;;;5076558;28;20070;-73
2021/10/26 01:22:25;;;;;;;6.10;3.47;;;9.90;86.90;;;;;;5078014;28;20044;-74
2021/10/26 01:24:51;;;;;;;9.68;3.58;;;9.90;86.80;;;;;;5076758;28;20450;-74
2021/10/26 01:27:17;;;;;;;7.00;3.75;;;9.90;86.80;;;;;;5078258;28;20458;-74
2021/10/26 01:29:43;;;;;;;6.35;3.40;;;9.90;86.80;;;;;;5076836;28;20031;-74
2021/10/26 01:32:11;;;;;;;7.95;3.42;;;9.90;86.90;;;;;;5080792;28;20111;-74
2021/10/26 01:34:37;;;;;;;7.28;3.42;;;10.00;86.90;;;;;;5092982;28;20016;-73
2021/10/26 01:37:06;;;;;;;7.50;3.75;;;9.90;86.90;;;;;;5083449;28;20395;-74
2021/10/26 01:39:33;;;;;;;7.13;2.97;;;9.90;87.00;;;;;;5094532;28;20027;-74
2021/10/26 01:41:59;;;;;;;5.18;3.28;;;9.90;86.90;;;;;;5076925;28;20028;-74
2021/10/26 01:44:26;;;;;;;6.72;3.67;;;9.90;86.80;;;;;;5076660;28;20020;-73
2021/10/26 01:46:52;;;;;;;9.52;4.22;;;9.90;87.10;;;;;;5076668;28;20037;-73
2021/10/26 01:49:19;;;;;;;10.07;5.05;;;9.90;87.20;;;;;;5076679;28;20028;-73
2021/10/26 01:51:46;;;;;;;10.18;3.90;;;9.80;87.20;;;;;;5076739;28;20017;-73
2021/10/26 01:54:12;;;;;;;6.82;3.28;;;9.80;87.20;;;;;;5079711;28;20530;-73
2021/10/26 01:56:39;;;;;;;8.18;3.72;;;9.90;87.10;;;;;;5089714;28;20024;-73
2021/10/26 01:59:05;;;;;;;5.85;3.38;;;9.80;86.90;;;;;;5080292;28;20513;-73
2021/10/26 02:01:31;;;;;;;6.65;3.45;;;9.90;87.30;;;;;;5080089;28;20051;-73
2021/10/26 02:03:57;;;;;;;11.52;4.07;;;9.80;87.20;;;;;;5081212;28;20021;-73
2021/10/26 02:06:23;;;;;;;9.05;4.00;;;9.90;87.30;;;;;;5080074;28;20414;-74
2021/10/26 02:08:48;;;;;;;9.90;3.75;;;9.90;87.30;;;;;;5080226;28;20028;-73
2021/10/26 02:11:15;;;;;;;7.15;3.53;;;9.90;87.40;;;;;;5079879;28;20027;-74
2021/10/26 02:13:40;;;;;;;12.80;4.72;;;9.90;87.60;;;;;;5092363;28;20035;-73
2021/10/26 02:16:06;;;;;;;7.80;3.95;;;10.00;88.00;;;;;;5080453;28;20029;-73
2021/10/26 02:18:32;;;;;;;7.22;4.10;;;10.00;87.70;;;;;;5079922;28;20028;-73
2021/10/26 02:20:59;;;;;;;7.40;3.85;;;10.00;87.70;;;;;;5079993;28;20012;-73
2021/10/26 02:23:25;;;;;;;9.20;3.65;;;10.00;87.50;;;;;;5079930;28;20150;-73
2021/10/26 02:25:51;;;;;;;7.22;4.22;;;10.00;87.30;;;;;;5079786;28;20058;-73
2021/10/26 02:28:17;;;;;;;7.38;3.72;;;9.90;87.30;;;;;;5093020;28;20039;-74
2021/10/26 02:30:43;;;;;;;7.15;3.55;;;9.90;87.20;;;;;;5100022;28;20074;-74
2021/10/26 02:33:10;;;;;;;9.80;3.50;;;9.90;87.20;;;;;;5098610;28;20024;-74
2021/10/26 02:35:36;;;;;;;7.68;4.18;;;9.90;87.30;;;;;;5092599;28;20024;-73
2021/10/26 02:38:02;;;;;;;9.05;3.92;;;9.80;87.00;;;;;;5080514;28;20063;-74
2021/10/26 02:40:28;;;;;;;6.40;3.38;;;9.80;86.90;;;;;;5080675;28;20028;-74
2021/10/26 02:42:54;;;;;;;9.05;3.75;;;9.70;86.90;;;;;;5085139;28;20017;-73
2021/10/26 02:45:25;;;;;;;9.70;4.50;;;9.70;86.90;;;;;;5079601;28;20032;-73
2021/10/26 02:47:51;;;;;;;9.60;4.80;;;9.70;87.00;;;;;;5079443;28;20075;-73
2021/10/26 02:50:19;;;;;;;8.27;4.63;;;9.70;87.70;;;;;;5079321;28;20028;-73
2021/10/26 02:52:46;;;;;;;9.15;4.82;;;9.60;87.30;;;;;;5091033;28;20111;-73
2021/10/26 02:55:12;;;;;;;8.75;4.45;;;9.60;87.30;;;;;;5080350;28;20399;-74
2021/10/26 02:57:38;;;;;;;9.30;3.80;;;9.60;87.10;;;;;;5079144;28;20430;-73
2021/10/26 03:00:06;;;;;;;8.00;3.67;;;9.60;87.10;;;;;;5079387;28;20464;-73
2021/10/26 03:02:32;;;;;;;5.97;3.53;;;9.60;87.10;;;;;;5079560;28;20028;-73
2021/10/26 03:04:58;;;;;;;8.57;4.22;;;9.60;87.10;;;;;;5079227;28;20071;-73
2021/10/26 03:07:24;;;;;;;20.55;8.30;;;9.60;87.10;;;;;;5091761;28;20062;-73
2021/10/26 03:09:49;;;;;;;27.48;10.27;;;9.60;87.50;;;;;;5078908;28;20104;-73
2021/10/26 03:12:16;;;;;;;23.55;9.80;;;9.60;87.40;;;;;;5079396;28;20031;-74
2021/10/26 03:14:41;;;;;;;18.33;8.07;;;9.50;87.80;;;;;;5091184;28;20021;-73
2021/10/26 03:17:07;;;;;;;13.18;6.28;;;9.50;88.00;;;;;;5078510;28;20039;-74
2021/10/26 03:19:33;;;;;;;12.30;5.95;;;9.50;88.20;;;;;;5079020;28;20475;-73
2021/10/26 03:21:59;;;;;;;10.18;4.35;;;9.50;88.00;;;;;;5078585;28;20020;-74
2021/10/26 03:24:24;;;;;;;9.70;4.55;;;9.60;87.90;;;;;;5078829;28;20051;-74
2021/10/26 03:26:51;;;;;;;8.10;4.13;;;9.60;87.80;;;;;;5080694;28;20028;-74
2021/10/26 03:29:16;;;;;;;8.88;4.22;;;9.60;88.30;;;;;;5078774;28;20017;-74
2021/10/26 03:31:43;;;;;;;8.27;3.90;;;9.60;88.30;;;;;;5080530;28;20075;-73
2021/10/26 03:34:08;;;;;;;7.85;3.55;;;9.70;88.60;;;;;;5098415;28;20055;-73
2021/10/26 03:36:34;;;;;;;7.07;3.35;;;9.70;88.30;;;;;;5083989;28;20068;-74
2021/10/26 03:39:00;;;;;;;6.82;3.55;;;9.70;88.10;;;;;;5079868;28;20028;-74
2021/10/26 03:41:26;;;;;;;7.43;2.85;;;9.70;88.50;;;;;;5085353;28;20054;-74
2021/10/26 03:43:53;;;;;;;6.00;3.15;;;9.60;87.60;;;;;;5078385;28;20474;-73
2021/10/26 03:46:19;;;;;;;7.30;3.28;;;9.60;87.50;;;;;;5078041;28;20020;-74
2021/10/26 03:48:45;;;;;;;8.98;3.33;;;9.60;87.40;;;;;;5077054;28;20032;-74
2021/10/26 03:51:11;;;;;;;8.55;3.47;;;9.60;87.20;;;;;;5078147;28;20424;-74
2021/10/26 03:53:37;;;;;;;5.88;3.40;;;9.60;87.20;;;;;;5078156;28;20020;-74
2021/10/26 03:56:03;;;;;;;5.68;3.60;;;9.60;87.20;;;;;;5091265;28;20032;-73
2021/10/26 03:58:30;;;;;;;6.93;3.65;;;9.50;87.10;;;;;;5079171;28;20016;-74
2021/10/26 04:00:56;;;;;;;6.65;3.55;;;9.50;87.30;;;;;;5085372;28;20028;-73
2021/10/26 04:03:22;;;;;;;6.38;3.40;;;9.50;88.00;;;;;;5086201;28;20027;-73
2021/10/26 04:08:45;;;;;;;14.18;4.10;;;9.40;87.70;;;;;;5077977;28;20099;-73
2021/10/26 04:11:14;;;;;;;6.95;3.28;;;9.50;88.10;;;;;;5090593;28;20515;-74
2021/10/26 04:13:40;;;;;;;6.53;3.60;;;9.50;88.20;;;;;;5090715;28;20081;-73
2021/10/26 04:16:06;;;;;;;8.27;3.10;;;9.50;87.90;;;;;;5091368;28;20494;-73
2021/10/26 04:18:31;;;;;;;7.07;3.58;;;9.40;88.30;;;;;;5077185;28;20025;-73
2021/10/26 04:20:57;;;;;;;5.53;3.05;;;9.40;87.80;;;;;;5082219;28;20028;-73
2021/10/26 04:23:23;;;;;;;7.13;3.63;;;9.40;87.60;;;;;;5085217;28;20013;-73
2021/10/26 04:25:49;;;;;;;6.90;3.70;;;9.40;87.60;;;;;;5080141;28;20063;-73
2021/10/26 04:28:16;;;;;;;6.20;3.28;;;9.40;87.60;;;;;;5076386;28;20025;-74
2021/10/26 04:30:43;;;;;;;6.88;3.40;;;9.40;87.50;;;;;;5078973;28;20056;-73
2021/10/26 04:33:10;;;;;;;6.97;3.75;;;9.30;87.60;;;;;;5103282;28;20024;-73
2021/10/26 04:35:36;;;;;;;7.03;3.53;;;9.30;87.60;;;;;;5096838;28;20053;-73
2021/10/26 04:38:02;;;;;;;7.00;4.03;;;9.40;87.80;;;;;;5083176;28;20495;-74
2021/10/26 04:40:28;;;;;;;6.45;4.35;;;9.40;87.80;;;;;;5085638;28;20482;-74
2021/10/26 04:42:54;;;;;;;7.43;4.50;;;9.40;89.60;;;;;;5081725;28;20027;-73
2021/10/26 04:45:22;;;;;;;7.47;4.65;;;9.40;88.60;;;;;;5077230;28;20440;-73
2021/10/26 04:47:48;;;;;;;11.10;4.60;;;9.50;88.50;;;;;;5078267;28;20063;-73
2021/10/26 04:50:14;;;;;;;9.13;4.78;;;9.50;88.40;;;;;;5077237;28;20028;-73
2021/10/26 04:52:40;;;;;;;9.18;4.75;;;9.60;88.40;;;;;;5077211;28;20031;-73
2021/10/26 04:55:06;;;;;;;9.40;5.13;;;9.60;88.20;;;;;;5078227;28;20020;-73
2021/10/26 04:57:32;;;;;;;7.70;4.15;;;9.50;88.00;;;;;;5077285;28;20077;-73
2021/10/26 04:59:58;;;;;;;8.00;4.35;;;9.60;88.70;;;;;;5078409;28;20055;-73
2021/10/26 05:02:24;;;;;;;7.88;4.13;;;9.60;88.50;;;;;;5077838;28;20037;-73
2021/10/26 05:04:50;;;;;;;7.05;3.92;;;9.60;88.20;;;;;;5077163;28;20012;-72
2021/10/26 05:07:17;;;;;;;7.22;4.00;;;9.60;88.30;;;;;;5090318;28;20039;-74
2021/10/26 05:09:43;;;;;;;7.55;4.40;;;9.60;88.10;;;;;;5076688;28;20021;-72
2021/10/26 05:12:09;;;;;;;8.00;3.83;;;9.60;88.20;;;;;;5078796;28;20034;-71
2021/10/26 05:14:35;;;;;;;6.80;3.53;;;9.60;88.10;;;;;;5092397;28;20024;-71
2021/10/26 05:17:04;;;;;;;7.90;4.20;;;9.50;88.00;;;;;;5091771;28;20028;-72
2021/10/26 05:19:30;;;;;;;7.60;3.70;;;9.60;88.00;;;;;;5077207;28;20070;-72
2021/10/26 05:21:56;;;;;;;6.32;3.85;;;9.50;88.30;;;;;;5076865;28;20543;-74
2021/10/26 05:24:25;;;;;;;7.93;4.45;;;9.60;88.40;;;;;;5095193;28;20070;-71
2021/10/26 05:26:52;;;;;;;8.07;5.05;;;9.60;88.50;;;;;;5081911;28;20033;-72
2021/10/26 05:29:18;;;;;;;10.82;5.68;;;9.70;88.60;;;;;;5077005;28;20047;-70
2021/10/26 05:31:44;;;;;;;10.63;6.80;;;9.70;88.40;;;;;;5080358;28;20029;-70
2021/10/26 05:34:10;;;;;;;10.23;7.53;;;9.70;88.20;;;;;;5100811;28;20102;-71
2021/10/26 05:36:37;;;;;;;13.15;7.10;;;9.70;88.20;;;;;;5085400;28;20028;-70
2021/10/26 05:39:09;;;;;;;10.00;7.00;;;9.70;88.10;;;;;;5080673;28;20167;-72
2021/10/26 05:41:35;;;;;;;7.82;6.38;;;9.70;88.10;;;;;;5088101;28;20051;-73
2021/10/26 05:44:03;;;;;;;8.55;5.72;;;9.70;88.10;;;;;;5090012;28;20024;-72
2021/10/26 05:46:29;;;;;;;8.25;5.18;;;9.70;88.10;;;;;;5083914;28;20047;-72
2021/10/26 05:48:55;;;;;;;8.48;4.82;;;9.70;88.30;;;;;;5089430;28;20028;-75
2021/10/26 05:51:20;;;;;;;7.93;4.32;;;9.70;88.20;;;;;;5081529;28;20028;-72
2021/10/26 05:53:46;;;;;;;8.00;4.47;;;9.70;88.30;;;;;;5081788;28;20031;-72
2021/10/26 05:56:12;;;;;;;6.88;3.97;;;9.70;88.70;;;;;;5093174;28;20097;-71
2021/10/26 05:58:38;;;;;;;6.85;4.10;;;9.70;89.00;;;;;;5080372;28;20066;-72
2021/10/26 06:01:03;;;;;;;8.07;4.20;;;9.60;88.80;;;;;;5081102;28;20033;-73
2021/10/26 06:03:31;;;;;;;6.15;4.03;;;9.60;88.50;;;;;;5089114;28;20103;-72
2021/10/26 06:05:56;;;;;;;6.75;3.80;;;9.60;88.50;;;;;;5083443;28;20559;-73
2021/10/26 06:08:22;;;;;;;8.45;3.63;;;9.60;88.40;;;;;;5090651;28;20125;-72
2021/10/26 06:10:55;;;;;;;6.45;4.25;;;9.60;88.60;;;;;;5079939;28;20858;-72
2021/10/26 06:13:33;;;;;;;8.63;4.40;;;9.70;88.90;;;;;;5089877;28;20127;-72
2021/10/26 06:15:59;;;;;;;9.18;4.55;;;9.70;89.20;;;;;;5095246;28;20494;-72
2021/10/26 06:18:24;;;;;;;8.85;4.80;;;9.70;89.80;;;;;;5079920;28;20047;-72
2021/10/26 06:20:50;;;;;;;9.32;4.70;;;9.70;90.00;;;;;;5083992;28;20070;-72
2021/10/26 06:23:16;;;;;;;5.88;3.60;;;9.80;89.90;;;;;;5081848;28;20483;-72
2021/10/26 06:25:42;;;;;;;6.93;3.47;;;9.80;89.50;;;;;;5079704;28;20081;-72
2021/10/26 06:28:09;;;;;;;7.63;4.38;;;9.80;89.20;;;;;;5086215;28;20028;-72
2021/10/26 06:30:35;;;;;;;7.95;4.10;;;9.90;89.60;;;;;;5081099;28;20032;-72
2021/10/26 06:33:00;;;;;;;9.95;3.67;;;9.90;89.70;;;;;;5090993;28;20492;-72
2021/10/26 06:35:27;;;;;;;8.20;3.63;;;9.90;90.00;;;;;;5093048;28;20111;-72
2021/10/26 06:37:53;;;;;;;7.63;3.70;;;10.00;90.40;;;;;;5079709;28;20048;-72
2021/10/26 06:40:18;;;;;;;7.63;3.30;;;10.00;90.40;;;;;;5083556;28;20121;-72
2021/10/26 06:42:45;;;;;;;7.43;3.00;;;10.10;91.40;;;;;;5086899;28;20058;-72
2021/10/26 06:45:11;;;;;;;7.78;3.00;;;10.20;91.50;;;;;;5079582;28;20020;-72
2021/10/26 06:47:38;;;;;;;6.07;2.85;;;10.30;91.70;;;;;;5079412;28;20082;-72
2021/10/26 06:50:05;;;;;;;6.82;2.90;;;10.30;91.80;;;;;;5079545;28;20028;-72
2021/10/26 06:52:32;;;;;;;7.55;3.30;;;10.40;91.70;;;;;;5082919;28;20027;-72
2021/10/26 06:54:58;;;;;;;6.45;3.42;;;10.50;91.60;;;;;;5080363;28;20032;-73
2021/10/26 06:57:25;;;;;;;10.02;4.30;;;10.50;91.50;;;;;;5077856;28;20030;-72
2021/10/26 06:59:51;;;;;;;11.30;4.88;;;10.50;91.30;;;;;;5079392;28;20023;-72
2021/10/26 07:02:17;;;;;;;13.48;4.35;;;10.60;91.40;;;;;;5079880;28;20059;-72
2021/10/26 07:04:44;;;;;;;11.00;4.57;;;10.60;91.50;;;;;;5079301;28;20387;-72
2021/10/26 07:07:10;;;;;;;9.10;4.47;;;10.60;91.60;;;;;;5091740;28;20038;-72
2021/10/26 07:09:36;;;;;;;9.90;4.30;;;10.70;91.70;;;;;;5078488;28;20107;-72
2021/10/26 07:12:02;;;;;;;9.15;4.40;;;10.70;91.40;;;;;;5091436;28;20106;-72
2021/10/26 07:14:28;;;;;;;8.55;4.22;;;10.80;91.10;;;;;;5083538;28;20437;-72
2021/10/26 07:16:54;;;;;;;7.32;3.38;;;10.80;90.90;;;;;;5078692;28;20453;-72
2021/10/26 07:19:20;;;;;;;7.50;4.50;;;10.80;90.70;;;;;;5081236;28;20028;-72
2021/10/26 07:21:45;;;;;;;12.25;5.18;;;10.90;90.60;;;;;;5086910;28;20035;-72
2021/10/26 07:24:13;;;;;;;12.05;5.00;;;10.90;90.70;;;;;;5078641;28;20112;-72
2021/10/26 07:26:40;;;;;;;9.85;4.78;;;10.90;91.00;;;;;;5081563;28;20071;-72
2021/10/26 07:29:06;;;;;;;10.57;5.15;;;11.00;90.90;;;;;;5079076;28;20054;-72
2021/10/26 07:31:32;;;;;;;9.60;5.10;;;11.00;90.80;;;;;;5084583;28;20028;-72
2021/10/26 07:33:59;;;;;;;8.70;4.53;;;11.10;90.70;;;;;;5081075;28;20035;-73
2021/10/26 07:36:31;;;;;;;9.27;5.55;;;11.10;90.60;;;;;;5084063;28;20440;-72
2021/10/26 07:39:00;;;;;;;11.82;5.20;;;11.20;90.80;;;;;;5077024;28;20032;-72
2021/10/26 07:41:27;;;;;;;10.13;5.47;;;11.20;90.70;;;;;;5090096;28;20028;-72
2021/10/26 07:43:54;;;;;;;11.10;6.00;;;11.30;90.70;;;;;;5078388;28;20066;-73
2021/10/26 07:46:20;;;;;;;9.48;5.20;;;11.30;90.70;;;;;;5087281;28;20470;-72
2021/10/26 07:48:46;;;;;;;7.72;4.65;;;11.30;90.60;;;;;;5078334;28;20056;-72
2021/10/26 07:51:12;;;;;;;11.70;4.57;;;11.40;90.50;;;;;;5083728;28;20035;-72
2021/10/26 07:53:38;;;;;;;9.27;4.93;;;11.40;90.40;;;;;;5077819;28;20028;-72
2021/10/26 07:56:06;;;;;;;10.32;5.13;;;11.40;90.30;;;;;;5079787;28;20033;-72
2021/10/26 07:58:32;;;;;;;11.00;5.03;;;11.40;90.30;;;;;;5078415;28;20052;-72
2021/10/26 08:00:58;;;;;;;10.40;5.60;;;11.40;90.30;;;;;;5081959;28;20475;-72
2021/10/26 08:03:24;;;;;;;9.45;5.38;;;11.40;90.30;;;;;;5086815;28;20035;-72
2021/10/26 08:05:50;;;;;;;8.75;5.35;;;11.50;90.30;;;;;;5082293;28;20032;-72
2021/10/26 08:08:17;;;;;;;11.20;6.18;;;11.50;90.30;;;;;;5078049;28;20024;-72
2021/10/26 08:10:44;;;;;;;11.88;6.13;;;11.50;90.30;;;;;;5081532;28;20024;-72
2021/10/26 08:13:10;;;;;;;13.63;6.25;;;11.60;90.30;;;;;;5086462;28;20047;-72
2021/10/26 08:15:36;;;;;;;11.43;6.07;;;11.60;90.60;;;;;;5095851;28;20055;-73
2021/10/26 08:18:02;;;;;;;15.98;7.28;;;11.70;90.80;;;;;;5077723;28;20048;-72
2021/10/26 08:20:28;;;;;;;16.95;7.30;;;11.70;90.80;;;;;;5077543;28;20025;-72
2021/10/26 08:22:54;;;;;;;19.75;7.93;;;11.80;91.10;;;;;;5078686;28;20013;-72
2021/10/26 08:25:26;;;;;;;15.32;7.50;;;11.80;91.20;;;;;;5076177;28;20021;-72
2021/10/26 08:27:55;;;;;;;14.02;7.05;;;11.90;91.10;;;;;;5077811;28;20040;-72
2021/10/26 08:30:39;;;;;;;14.65;7.43;;;12.00;91.10;;;;;;5080667;28;20088;-72
2021/10/26 08:35:37;;;;;;;14.52;6.63;;;12.10;91.00;;;;;;5084282;28;20166;-72
2021/10/26 08:38:05;;;;;;;12.40;6.85;;;12.20;91.10;;;;;;5081362;28;20078;-72
2021/10/26 08:40:33;;;;;;;13.85;6.65;;;12.20;91.20;;;;;;5080891;28;20032;-72
2021/10/26 08:43:03;;;;;;;12.52;6.70;;;12.30;91.20;;;;;;5080262;28;20052;-72
2021/10/26 08:45:32;;;;;;;17.35;7.10;;;12.50;91.20;;;;;;5079318;28;20028;-72
2021/10/26 08:48:01;;;;;;;13.70;5.28;;;12.70;91.80;;;;;;5082376;28;20004;-72
2021/10/26 08:50:30;;;;;;;15.57;5.60;;;12.90;92.00;;;;;;5086926;28;20081;-72
2021/10/26 08:52:56;;;;;;;16.80;5.85;;;13.10;92.20;;;;;;5077170;28;20031;-71
2021/10/26 08:55:22;;;;;;;14.38;6.35;;;13.20;92.10;;;;;;5087247;28;20095;-71
2021/10/26 08:57:48;;;;;;;15.93;5.90;;;13.40;92.30;;;;;;5080828;28;20032;-71
2021/10/26 09:00:17;;;;;;;17.48;5.95;;;13.50;92.40;;;;;;5082013;28;20487;-72
2021/10/26 09:02:49;;;;;;;14.90;6.30;;;13.70;92.50;;;;;;5090481;28;20031;-72
2021/10/26 09:05:20;;;;;;;18.38;6.38;;;13.90;92.50;;;;;;5087217;28;20023;-72
2021/10/26 09:08:06;;;;;;;16.17;6.00;;;14.10;92.50;;;;;;5098384;28;20016;-72
2021/10/26 09:10:34;;;;;;;14.15;6.45;;;14.30;92.60;;;;;;5083821;28;20040;-71
2021/10/26 09:18:39;;;;;;;20.50;5.90;;;14.90;92.60;;;;;;5090498;28;20039;-72
2021/10/26 09:21:05;;;;;;;13.65;5.78;;;15.10;92.40;;;;;;5089233;28;20017;-71
2021/10/26 09:23:30;;;;;;;13.15;5.93;;;15.30;92.20;;;;;;5083745;28;20372;-72
2021/10/26 09:25:59;;;;;;;15.25;5.60;;;15.50;92.10;;;;;;5083512;28;20399;-72
2021/10/26 09:28:26;;;;;;;16.15;6.10;;;15.60;91.50;;;;;;5083946;28;20035;-72
2021/10/26 09:31:06;;;;;;;12.75;6.35;;;15.70;91.30;;;;;;5083346;28;20020;-72
2021/10/26 09:33:34;;;;;;;13.73;7.22;;;15.70;91.20;;;;;;5099347;28;20039;-72
2021/10/26 09:36:20;;;;;;;13.07;6.68;;;15.80;91.20;;;;;;5099082;28;20494;-72
2021/10/26 09:38:46;;;;;;;11.07;5.15;;;15.90;91.30;;;;;;5083351;28;20041;-72
2021/10/26 09:41:12;;;;;;;13.77;5.85;;;16.00;91.10;;;;;;5083727;28;20158;-72
2021/10/26 09:43:38;;;;;;;14.32;5.18;;;16.10;91.00;;;;;;5083515;28;20020;-72
2021/10/26 09:46:04;;;;;;;18.45;5.45;;;16.30;91.00;;;;;;5083578;28;20086;-72
2021/10/26 09:48:34;;;;;;;15.48;5.70;;;16.60;91.00;;;;;;5083653;28;20028;-72
2021/10/26 09:51:09;;;;;;;13.38;4.60;;;16.70;90.70;;;;;;5083852;28;20060;-72
2021/10/26 09:53:36;;;;;;;10.63;4.63;;;17.00;90.90;;;;;;5083331;28;20109;-72
2021/10/26 09:56:10;;;;;;;13.68;4.85;;;17.30;90.20;;;;;;5083667;28;20059;-72
2021/10/26 09:58:36;;;;;;;9.93;4.90;;;17.30;89.10;;;;;;5082101;28;20044;-72
2021/10/26 10:01:07;;;;;;;11.32;4.90;;;17.30;89.50;;;;;;5083464;28;20420;-72
2021/10/26 10:03:33;;;;;;;14.18;5.90;;;17.40;89.50;;;;;;5083311;28;20112;-72
2021/10/26 10:06:10;;;;;;;14.85;5.70;;;17.60;89.60;;;;;;5085739;28;20025;-72
2021/10/26 10:08:39;;;;;;;17.95;4.68;;;17.80;89.30;;;;;;5092662;28;20399;-72
2021/10/26 10:11:05;;;;;;;10.80;4.10;;;18.10;89.10;;;;;;5083121;28;20111;-73
2021/10/26 10:13:31;;;;;;;13.13;5.07;;;18.30;88.40;;;;;;5094929;28;20028;-73
2021/10/26 10:15:57;;;;;;;13.35;6.18;;;18.30;86.90;;;;;;5098036;28;20043;-72
2021/10/26 10:18:24;;;;;;;12.68;5.03;;;18.40;86.90;;;;;;5079013;28;20021;-73
2021/10/26 10:20:53;;;;;;;9.82;4.68;;;18.60;86.60;;;;;;5079992;28;20044;-73
2021/10/26 10:23:21;;;;;;;11.32;5.22;;;18.90;86.20;;;;;;5080366;28;20060;-72
2021/10/26 10:25:47;;;;;;;11.65;4.70;;;19.30;84.60;;;;;;5079732;28;20032;-72
2021/10/26 10:28:30;;;;;;;11.00;5.20;;;19.60;85.60;;;;;;5080168;28;20074;-73
2021/10/26 10:31:02;;;;;;;12.40;5.38;;;20.00;84.30;;;;;;5088671;28;20020;-73
2021/10/26 10:33:29;;;;;;;10.13;4.88;;;20.30;82.70;;;;;;5099040;28;20046;-73
2021/10/26 10:35:58;;;;;;;11.65;4.60;;;20.60;81.50;;;;;;5090111;28;20029;-72
2021/10/26 10:38:32;;;;;;;17.20;4.63;;;20.80;80.50;;;;;;5079490;28;20045;-73
2021/10/26 10:41:21;;;;;;;11.65;4.15;;;20.80;79.10;;;;;;5079719;28;20029;-73
2021/10/26 10:43:47;;;;;;;13.20;4.40;;;20.70;77.90;;;;;;5087366;28;20089;-73
2021/10/26 10:46:36;;;;;;;14.68;4.65;;;20.60;78.20;;;;;;5084926;28;20024;-73
2021/10/26 10:49:22;;;;;;;10.40;3.90;;;20.60;76.60;;;;;;5079610;28;20447;-73
2021/10/26 10:51:56;;;;;;;13.77;4.40;;;20.50;77.10;;;;;;5086623;28;20134;-73
2021/10/26 10:54:48;;;;;;;11.38;4.70;;;20.60;77.30;;;;;;5084376;28;20070;-73
2021/10/26 10:57:24;;;;;;;10.75;3.92;;;20.50;75.60;;;;;;5079531;28;20028;-73
2021/10/26 10:59:55;;;;;;;11.52;4.68;;;20.40;76.00;;;;;;5085057;28;20024;-73
2021/10/26 11:02:36;;;;;;;9.65;4.85;;;20.20;76.70;;;;;;5085108;28;20150;-73
2021/10/26 11:05:07;;;;;;;12.50;3.38;;;20.00;77.00;;;;;;5079527;28;20016;-73
2021/10/26 11:07:45;;;;;;;14.10;3.72;;;19.90;77.10;;;;;;5092835;28;20031;-73
2021/10/26 11:10:14;;;;;;;9.95;3.83;;;19.70;76.50;;;;;;5079257;28;20035;-73
2021/10/26 11:12:42;;;;;;;14.35;4.05;;;19.60;76.80;;;;;;5081629;28;20040;-73
2021/10/26 11:15:12;;;;;;;13.60;4.45;;;19.60;77.80;;;;;;5099531;28;20035;-73
2021/10/26 11:17:42;;;;;;;10.52;4.72;;;19.50;77.50;;;;;;5080004;28;20025;-73
2021/10/26 11:20:26;;;;;;;10.75;4.80;;;19.70;77.60;;;;;;5079052;28;20107;-73
2021/10/26 11:22:54;;;;;;;15.02;5.25;;;20.10;79.90;;;;;;5087734;28;20024;-73
2021/10/26 11:25:37;;;;;;;13.35;4.25;;;20.70;78.10;;;;;;5082923;28;20494;-73
2021/10/26 11:28:18;;;;;;;13.60;3.95;;;21.10;75.60;;;;;;5078397;28;20024;-73
2021/10/26 11:30:46;;;;;;;12.48;4.70;;;21.20;73.80;;;;;;5086086;28;20036;-73
2021/10/26 11:33:12;;;;;;;10.68;3.33;;;21.20;73.50;;;;;;5097451;28;20031;-73
2021/10/26 11:35:52;;;;;;;11.73;3.33;;;21.20;72.20;;;;;;5090761;28;20399;-73
2021/10/26 11:38:25;;;;;;;10.35;4.03;;;21.00;73.60;;;;;;5078479;28;20051;-73
2021/10/26 11:40:53;;;;;;;9.18;2.78;;;20.80;73.80;;;;;;5078662;28;20030;-73
2021/10/26 11:43:20;;;;;;;12.32;4.20;;;20.70;73.80;;;;;;5078332;28;20062;-73
2021/10/26 11:46:12;;;;;;;10.77;3.88;;;20.60;72.80;;;;;;5078202;28;20040;-73
2021/10/26 11:48:50;;;;;;;7.68;2.88;;;20.40;72.30;;;;;;5084062;28;20421;-73
2021/10/26 11:51:26;;;;;;;11.15;3.47;;;20.30;72.50;;;;;;5081499;28;20093;-73
2021/10/26 11:54:17;;;;;;;10.05;2.75;;;20.10;73.70;;;;;;5078076;28;20025;-73
2021/10/26 11:56:44;;;;;;;9.00;2.50;;;20.00;73.30;;;;;;5081540;28;20048;-73
2021/10/26 11:59:24;;;;;;;11.90;2.88;;;19.80;70.60;;;;;;5082687;28;20418;-73
2021/10/26 12:01:54;;;;;;;9.50;2.72;;;19.70;71.00;;;;;;5077992;28;20017;-73
2021/10/26 12:04:31;;;;;;;16.10;3.38;;;19.70;72.20;;;;;;5077894;28;20050;-73
2021/10/26 12:07:05;;;;;;;10.93;2.88;;;19.80;74.10;;;;;;5088722;28;20023;-73
2021/10/26 12:09:36;;;;;;;10.52;2.67;;;20.00;74.00;;;;;;5079644;28;20021;-73
2021/10/26 12:12:07;;;;;;;8.90;2.33;;;20.10;73.50;;;;;;5077844;28;20147;-73
2021/10/26 12:14:41;;;;;;;10.52;2.90;;;20.30;74.00;;;;;;5097745;28;20262;-73
2021/10/26 12:17:16;;;;;;;12.13;2.15;;;20.50;71.00;;;;;;5083519;28;20649;-73
2021/10/26 12:20:07;;;;;;;10.60;2.42;;;20.60;71.80;;;;;;5077786;28;20024;-73
2021/10/26 12:22:38;;;;;;;11.25;2.50;;;20.80;71.20;;;;;;5077701;28;20020;-73
2021/10/26 12:25:27;;;;;;;8.68;2.30;;;20.90;72.40;;;;;;5077699;28;20170;-73
2021/10/26 12:28:01;;;;;;;9.43;2.55;;;21.10;71.20;;;;;;5087539;28;20452;-73
2021/10/26 12:30:28;;;;;;;8.40;2.10;;;21.20;71.00;;;;;;5079928;28;20104;-73
2021/10/26 12:32:56;;;;;;;10.57;1.77;;;21.20;68.50;;;;;;5087793;28;20049;-73
2021/10/26 12:35:23;;;;;;;8.73;2.03;;;21.10;67.80;;;;;;5092705;28;20024;-73
2021/10/26 12:37:51;;;;;;;7.65;2.15;;;21.00;68.80;;;;;;5077470;28;20518;-73
2021/10/26 12:40:21;;;;;;;5.22;2.15;;;20.90;68.70;;;;;;5076547;28;20537;-73
2021/10/26 12:43:01;;;;;;;10.02;2.28;;;20.90;69.70;;;;;;5077569;28;20466;-73
2021/10/26 12:45:35;;;;;;;8.73;1.67;;;20.90;70.00;;;;;;5085540;28;20357;-73
2021/10/26 12:48:04;;;;;;;8.40;2.67;;;20.90;69.30;;;;;;5081493;28;20025;-73
2021/10/26 12:51:09;;;;;;;9.73;1.90;;;20.90;69.50;;;;;;5077426;28;20024;-73
2021/10/26 12:53:43;;;;;;;6.57;1.77;;;21.00;70.80;;;;;;4998553;28;20447;-73
2021/10/26 12:56:22;;;;;;;7.50;1.75;;;21.10;70.40;;;;;;5013037;28;20068;-73
2021/10/26 12:59:07;;;;;;;8.55;2.10;;;21.20;70.70;;;;;;5057334;28;20035;-73
2021/10/26 13:01:36;;;;;;;10.43;2.90;;;21.20;68.50;;;;;;5075775;28;20028;-73
2021/10/26 13:04:08;;;;;;;10.70;2.00;;;21.20;68.80;;;;;;5077323;28;20056;-73
2021/10/26 13:06:54;;;;;;;6.87;2.23;;;21.20;67.80;;;;;;5084888;28;20395;-73